Chippewa Lake, Ohio
Current Conditions -  °F | °C
As of 1:29 PM on Thursday 30 Oct 2014 (Local Time) from KBJJ Reporting Station
Broken Clouds Broken Clouds  
Wind Chill: 49°   Ceiling: 4200
Heat Index: 49°   Visibility: 10mi
Dew Point: 36°   Wind: 0mph
Humidity: 61%   Direction: NA
Pressure: 30.11"   Gusts: NA
Location:  41.07°N, 81.9°W
Report Text: KBJJ 301729Z AUTO 00000KT 10SM SCT025 BKN042 09/02 A3011 RMK AO2 T00940022 TSNO
Loading
Personal Weather Stations






























Interactive Weather Map
Tropical Storm Tracking
New forecast layout! Learn more

10-Day Weather Forecast

Advertisements
Track Severe Weather on mobile